sensor_id;sensor_type;location;lat;lon;timestamp;P1;durP1;ratioP1;P2;durP2;ratioP2
5961;SDS011;3007;50.770;0.250;2023-07-08T00:00:23;11.30;;;4.90;;
5961;SDS011;3007;50.770;0.250;2023-07-08T00:02:50;10.40;;;5.60;;
5961;SDS011;3007;50.770;0.250;2023-07-08T00:05:19;9.10;;;5.22;;
5961;SDS011;3007;50.770;0.250;2023-07-08T00:07:47;6.78;;;5.00;;
5961;SDS011;3007;50.770;0.250;2023-07-08T00:10:15;9.05;;;5.10;;
5961;SDS011;3007;50.770;0.250;2023-07-08T00:12:45;8.85;;;5.15;;
5961;SDS011;3007;50.770;0.250;2023-07-08T00:15:13;10.52;;;5.35;;
5961;SDS011;3007;50.770;0.250;2023-07-08T00:17:41;8.40;;;4.75;;
5961;SDS011;3007;50.770;0.250;2023-07-08T00:20:10;9.32;;;5.38;;
5961;SDS011;3007;50.770;0.250;2023-07-08T00:22:42;8.60;;;4.75;;
5961;SDS011;3007;50.770;0.250;2023-07-08T00:25:12;8.40;;;5.38;;
5961;SDS011;3007;50.770;0.250;2023-07-08T00:27:39;9.07;;;5.20;;
5961;SDS011;3007;50.770;0.250;2023-07-08T00:30:13;7.05;;;4.82;;
5961;SDS011;3007;50.770;0.250;2023-07-08T00:32:45;9.10;;;5.40;;
5961;SDS011;3007;50.770;0.250;2023-07-08T00:35:12;7.22;;;4.80;;
5961;SDS011;3007;50.770;0.250;2023-07-08T00:37:40;8.10;;;4.93;;
5961;SDS011;3007;50.770;0.250;2023-07-08T00:40:12;10.43;;;4.75;;
5961;SDS011;3007;50.770;0.250;2023-07-08T00:42:49;7.43;;;5.00;;
5961;SDS011;3007;50.770;0.250;2023-07-08T00:45:35;8.82;;;5.00;;
5961;SDS011;3007;50.770;0.250;2023-07-08T00:48:09;8.07;;;5.05;;
5961;SDS011;3007;50.770;0.250;2023-07-08T00:50:41;7.90;;;4.88;;
5961;SDS011;3007;50.770;0.250;2023-07-08T00:53:24;11.35;;;5.68;;
5961;SDS011;3007;50.770;0.250;2023-07-08T00:55:54;13.63;;;5.25;;
5961;SDS011;3007;50.770;0.250;2023-07-08T00:58:22;7.38;;;5.10;;
5961;SDS011;3007;50.770;0.250;2023-07-08T01:00:52;8.95;;;5.75;;
5961;SDS011;3007;50.770;0.250;2023-07-08T01:03:22;6.38;;;5.53;;
5961;SDS011;3007;50.770;0.250;2023-07-08T01:05:50;8.80;;;4.90;;
5961;SDS011;3007;50.770;0.250;2023-07-08T01:08:17;8.40;;;4.82;;
5961;SDS011;3007;50.770;0.250;2023-07-08T01:10:49;8.65;;;5.20;;
5961;SDS011;3007;50.770;0.250;2023-07-08T01:13:19;7.63;;;5.20;;
5961;SDS011;3007;50.770;0.250;2023-07-08T01:15:48;11.95;;;5.88;;
5961;SDS011;3007;50.770;0.250;2023-07-08T01:18:17;6.45;;;4.60;;
5961;SDS011;3007;50.770;0.250;2023-07-08T01:20:47;6.15;;;4.40;;
5961;SDS011;3007;50.770;0.250;2023-07-08T01:23:15;8.95;;;5.07;;
5961;SDS011;3007;50.770;0.250;2023-07-08T01:25:43;6.80;;;5.10;;
5961;SDS011;3007;50.770;0.250;2023-07-08T01:28:11;9.68;;;5.28;;
5961;SDS011;3007;50.770;0.250;2023-07-08T01:30:39;7.80;;;5.32;;
5961;SDS011;3007;50.770;0.250;2023-07-08T01:33:12;11.82;;;5.72;;
5961;SDS011;3007;50.770;0.250;2023-07-08T01:35:42;11.13;;;5.85;;
5961;SDS011;3007;50.770;0.250;2023-07-08T01:38:09;11.30;;;5.30;;
5961;SDS011;3007;50.770;0.250;2023-07-08T01:40:47;5.88;;;4.72;;
5961;SDS011;3007;50.770;0.250;2023-07-08T01:43:16;11.55;;;5.45;;
5961;SDS011;3007;50.770;0.250;2023-07-08T01:45:43;8.82;;;5.40;;
5961;SDS011;3007;50.770;0.250;2023-07-08T01:48:11;11.00;;;5.03;;
5961;SDS011;3007;50.770;0.250;2023-07-08T01:50:40;7.57;;;5.35;;
5961;SDS011;3007;50.770;0.250;2023-07-08T01:53:14;7.82;;;5.20;;
5961;SDS011;3007;50.770;0.250;2023-07-08T01:55:56;10.27;;;5.55;;
5961;SDS011;3007;50.770;0.250;2023-07-08T01:58:23;11.25;;;5.13;;
5961;SDS011;3007;50.770;0.250;2023-07-08T02:00:50;6.38;;;4.55;;
5961;SDS011;3007;50.770;0.250;2023-07-08T02:03:18;7.57;;;5.13;;
5961;SDS011;3007;50.770;0.250;2023-07-08T02:05:45;8.15;;;4.90;;
5961;SDS011;3007;50.770;0.250;2023-07-08T02:08:12;7.10;;;4.60;;
5961;SDS011;3007;50.770;0.250;2023-07-08T02:10:39;10.13;;;5.20;;
5961;SDS011;3007;50.770;0.250;2023-07-08T02:13:08;9.68;;;4.85;;
5961;SDS011;3007;50.770;0.250;2023-07-08T02:15:35;6.85;;;4.82;;
5961;SDS011;3007;50.770;0.250;2023-07-08T02:18:02;8.98;;;5.18;;
5961;SDS011;3007;50.770;0.250;2023-07-08T02:20:29;9.27;;;4.85;;
5961;SDS011;3007;50.770;0.250;2023-07-08T02:22:56;9.68;;;4.75;;
5961;SDS011;3007;50.770;0.250;2023-07-08T02:25:23;8.02;;;5.32;;
5961;SDS011;3007;50.770;0.250;2023-07-08T02:27:50;9.73;;;5.72;;
5961;SDS011;3007;50.770;0.250;2023-07-08T02:30:21;7.20;;;4.78;;
5961;SDS011;3007;50.770;0.250;2023-07-08T02:32:47;6.65;;;5.13;;
5961;SDS011;3007;50.770;0.250;2023-07-08T02:35:22;11.05;;;4.78;;
5961;SDS011;3007;50.770;0.250;2023-07-08T02:37:49;10.15;;;5.00;;
5961;SDS011;3007;50.770;0.250;2023-07-08T02:40:19;10.43;;;4.38;;
5961;SDS011;3007;50.770;0.250;2023-07-08T02:42:46;7.18;;;4.97;;
5961;SDS011;3007;50.770;0.250;2023-07-08T02:45:14;10.02;;;5.00;;
5961;SDS011;3007;50.770;0.250;2023-07-08T02:47:43;9.20;;;4.32;;
5961;SDS011;3007;50.770;0.250;2023-07-08T02:50:10;9.88;;;4.82;;
5961;SDS011;3007;50.770;0.250;2023-07-08T02:52:38;6.47;;;4.63;;
5961;SDS011;3007;50.770;0.250;2023-07-08T02:55:05;10.18;;;4.78;;
5961;SDS011;3007;50.770;0.250;2023-07-08T02:57:32;6.32;;;4.60;;
5961;SDS011;3007;50.770;0.250;2023-07-08T02:59:59;10.65;;;4.93;;
5961;SDS011;3007;50.770;0.250;2023-07-08T03:02:28;8.00;;;4.65;;
5961;SDS011;3007;50.770;0.250;2023-07-08T03:04:56;10.77;;;4.75;;
5961;SDS011;3007;50.770;0.250;2023-07-08T03:07:24;8.70;;;5.00;;
5961;SDS011;3007;50.770;0.250;2023-07-08T03:09:51;9.55;;;4.90;;
5961;SDS011;3007;50.770;0.250;2023-07-08T03:12:17;6.22;;;4.50;;
5961;SDS011;3007;50.770;0.250;2023-07-08T03:14:44;8.02;;;4.78;;
5961;SDS011;3007;50.770;0.250;2023-07-08T03:17:11;9.60;;;4.53;;
5961;SDS011;3007;50.770;0.250;2023-07-08T03:19:38;6.80;;;4.32;;
5961;SDS011;3007;50.770;0.250;2023-07-08T03:22:08;6.85;;;4.32;;
5961;SDS011;3007;50.770;0.250;2023-07-08T03:24:34;10.63;;;4.65;;
5961;SDS011;3007;50.770;0.250;2023-07-08T03:27:01;5.97;;;4.03;;
5961;SDS011;3007;50.770;0.250;2023-07-08T03:29:30;8.40;;;4.53;;
5961;SDS011;3007;50.770;0.250;2023-07-08T03:31:57;6.22;;;4.05;;
5961;SDS011;3007;50.770;0.250;2023-07-08T03:34:24;7.28;;;4.15;;
5961;SDS011;3007;50.770;0.250;2023-07-08T03:36:51;9.07;;;4.15;;
5961;SDS011;3007;50.770;0.250;2023-07-08T03:39:20;8.75;;;4.28;;
5961;SDS011;3007;50.770;0.250;2023-07-08T03:41:49;7.20;;;4.65;;
5961;SDS011;3007;50.770;0.250;2023-07-08T03:44:17;9.20;;;4.78;;
5961;SDS011;3007;50.770;0.250;2023-07-08T03:46:45;5.88;;;3.80;;
5961;SDS011;3007;50.770;0.250;2023-07-08T03:49:13;5.68;;;3.75;;
5961;SDS011;3007;50.770;0.250;2023-07-08T03:51:40;5.70;;;4.07;;
5961;SDS011;3007;50.770;0.250;2023-07-08T03:54:08;6.72;;;3.95;;
5961;SDS011;3007;50.770;0.250;2023-07-08T03:56:38;6.40;;;4.15;;
5961;SDS011;3007;50.770;0.250;2023-07-08T03:59:06;6.05;;;4.32;;
5961;SDS011;3007;50.770;0.250;2023-07-08T04:01:33;5.97;;;3.92;;
5961;SDS011;3007;50.770;0.250;2023-07-08T04:04:00;6.03;;;3.67;;
5961;SDS011;3007;50.770;0.250;2023-07-08T04:06:27;7.55;;;4.60;;
5961;SDS011;3007;50.770;0.250;2023-07-08T04:08:54;6.70;;;4.60;;
5961;SDS011;3007;50.770;0.250;2023-07-08T04:11:22;5.40;;;3.90;;
5961;SDS011;3007;50.770;0.250;2023-07-08T04:13:54;6.70;;;3.90;;
5961;SDS011;3007;50.770;0.250;2023-07-08T04:16:22;6.63;;;3.97;;
5961;SDS011;3007;50.770;0.250;2023-07-08T04:18:53;5.22;;;3.70;;
5961;SDS011;3007;50.770;0.250;2023-07-08T04:21:20;6.50;;;4.10;;
5961;SDS011;3007;50.770;0.250;2023-07-08T04:23:48;7.85;;;4.32;;
5961;SDS011;3007;50.770;0.250;2023-07-08T04:26:15;5.75;;;3.75;;
5961;SDS011;3007;50.770;0.250;2023-07-08T04:28:42;7.85;;;4.38;;
5961;SDS011;3007;50.770;0.250;2023-07-08T04:31:10;6.72;;;3.67;;
5961;SDS011;3007;50.770;0.250;2023-07-08T04:33:37;9.60;;;4.07;;
5961;SDS011;3007;50.770;0.250;2023-07-08T04:36:04;7.85;;;4.00;;
5961;SDS011;3007;50.770;0.250;2023-07-08T04:38:35;7.57;;;4.45;;
5961;SDS011;3007;50.770;0.250;2023-07-08T04:41:02;7.25;;;3.85;;
5961;SDS011;3007;50.770;0.250;2023-07-08T04:43:30;5.90;;;4.30;;
5961;SDS011;3007;50.770;0.250;2023-07-08T04:45:57;7.03;;;4.18;;
5961;SDS011;3007;50.770;0.250;2023-07-08T04:48:26;9.38;;;4.40;;
5961;SDS011;3007;50.770;0.250;2023-07-08T04:50:53;6.45;;;4.47;;
5961;SDS011;3007;50.770;0.250;2023-07-08T04:53:20;10.75;;;4.28;;
5961;SDS011;3007;50.770;0.250;2023-07-08T04:55:48;7.95;;;4.40;;
5961;SDS011;3007;50.770;0.250;2023-07-08T04:58:18;7.88;;;3.72;;
5961;SDS011;3007;50.770;0.250;2023-07-08T05:00:46;8.93;;;4.10;;
5961;SDS011;3007;50.770;0.250;2023-07-08T05:03:12;6.88;;;3.83;;
5961;SDS011;3007;50.770;0.250;2023-07-08T05:05:41;5.80;;;3.67;;
5961;SDS011;3007;50.770;0.250;2023-07-08T05:08:08;8.00;;;3.80;;
5961;SDS011;3007;50.770;0.250;2023-07-08T05:10:35;6.65;;;3.97;;
5961;SDS011;3007;50.770;0.250;2023-07-08T05:13:02;5.35;;;3.40;;
5961;SDS011;3007;50.770;0.250;2023-07-08T05:15:29;8.50;;;3.33;;
5961;SDS011;3007;50.770;0.250;2023-07-08T05:17:56;6.90;;;3.03;;
5961;SDS011;3007;50.770;0.250;2023-07-08T05:20:23;12.50;;;4.15;;
5961;SDS011;3007;50.770;0.250;2023-07-08T05:22:51;6.05;;;3.35;;
5961;SDS011;3007;50.770;0.250;2023-07-08T05:25:18;5.10;;;3.17;;
5961;SDS011;3007;50.770;0.250;2023-07-08T05:27:46;10.65;;;3.22;;
5961;SDS011;3007;50.770;0.250;2023-07-08T05:30:14;8.07;;;3.40;;
5961;SDS011;3007;50.770;0.250;2023-07-08T05:32:42;4.40;;;3.22;;
5961;SDS011;3007;50.770;0.250;2023-07-08T05:35:09;6.80;;;3.53;;
5961;SDS011;3007;50.770;0.250;2023-07-08T05:37:36;9.30;;;3.00;;
5961;SDS011;3007;50.770;0.250;2023-07-08T05:40:07;5.95;;;2.97;;
5961;SDS011;3007;50.770;0.250;2023-07-08T05:42:34;6.85;;;3.35;;
5961;SDS011;3007;50.770;0.250;2023-07-08T05:45:02;7.18;;;3.10;;
5961;SDS011;3007;50.770;0.250;2023-07-08T05:47:31;7.10;;;3.38;;
5961;SDS011;3007;50.770;0.250;2023-07-08T05:49:58;5.78;;;3.17;;
5961;SDS011;3007;50.770;0.250;2023-07-08T05:52:25;5.50;;;3.38;;
5961;SDS011;3007;50.770;0.250;2023-07-08T05:54:52;4.95;;;3.10;;
5961;SDS011;3007;50.770;0.250;2023-07-08T05:57:21;4.85;;;3.10;;
5961;SDS011;3007;50.770;0.250;2023-07-08T05:59:49;8.13;;;3.90;;
5961;SDS011;3007;50.770;0.250;2023-07-08T06:02:18;7.95;;;3.45;;
5961;SDS011;3007;50.770;0.250;2023-07-08T06:04:48;9.70;;;3.65;;
5961;SDS011;3007;50.770;0.250;2023-07-08T06:07:15;11.32;;;3.63;;
5961;SDS011;3007;50.770;0.250;2023-07-08T06:09:42;5.80;;;3.38;;
5961;SDS011;3007;50.770;0.250;2023-07-08T06:12:09;5.28;;;3.28;;
5961;SDS011;3007;50.770;0.250;2023-07-08T06:14:38;4.97;;;2.90;;
5961;SDS011;3007;50.770;0.250;2023-07-08T06:17:05;10.27;;;3.67;;
5961;SDS011;3007;50.770;0.250;2023-07-08T06:19:32;5.90;;;3.05;;
5961;SDS011;3007;50.770;0.250;2023-07-08T06:21:59;5.68;;;3.58;;
5961;SDS011;3007;50.770;0.250;2023-07-08T06:24:26;11.15;;;3.60;;
5961;SDS011;3007;50.770;0.250;2023-07-08T06:26:53;8.20;;;3.45;;
5961;SDS011;3007;50.770;0.250;2023-07-08T06:29:20;5.47;;;3.33;;
5961;SDS011;3007;50.770;0.250;2023-07-08T06:31:48;7.22;;;3.60;;
5961;SDS011;3007;50.770;0.250;2023-07-08T06:34:15;8.55;;;3.80;;
5961;SDS011;3007;50.770;0.250;2023-07-08T06:36:42;9.85;;;3.90;;
5961;SDS011;3007;50.770;0.250;2023-07-08T06:39:08;6.15;;;3.63;;
5961;SDS011;3007;50.770;0.250;2023-07-08T06:41:36;7.70;;;3.80;;
5961;SDS011;3007;50.770;0.250;2023-07-08T06:44:03;8.82;;;3.83;;
5961;SDS011;3007;50.770;0.250;2023-07-08T06:46:30;6.78;;;3.60;;
5961;SDS011;3007;50.770;0.250;2023-07-08T06:48:59;7.57;;;3.90;;
5961;SDS011;3007;50.770;0.250;2023-07-08T06:51:26;6.97;;;3.47;;
5961;SDS011;3007;50.770;0.250;2023-07-08T06:53:53;5.53;;;3.45;;
5961;SDS011;3007;50.770;0.250;2023-07-08T06:56:20;10.23;;;4.68;;
5961;SDS011;3007;50.770;0.250;2023-07-08T06:58:47;6.65;;;3.33;;
5961;SDS011;3007;50.770;0.250;2023-07-08T07:01:14;6.15;;;3.65;;
5961;SDS011;3007;50.770;0.250;2023-07-08T07:03:40;10.48;;;3.88;;
5961;SDS011;3007;50.770;0.250;2023-07-08T07:06:09;6.82;;;3.75;;
5961;SDS011;3007;50.770;0.250;2023-07-08T07:08:35;6.60;;;3.83;;
5961;SDS011;3007;50.770;0.250;2023-07-08T07:11:02;6.45;;;3.72;;
5961;SDS011;3007;50.770;0.250;2023-07-08T07:13:32;8.30;;;3.75;;
5961;SDS011;3007;50.770;0.250;2023-07-08T07:15:58;6.03;;;3.30;;
5961;SDS011;3007;50.770;0.250;2023-07-08T07:18:25;10.13;;;3.67;;
5961;SDS011;3007;50.770;0.250;2023-07-08T07:20:53;8.05;;;3.78;;
5961;SDS011;3007;50.770;0.250;2023-07-08T07:23:22;8.48;;;4.03;;
5961;SDS011;3007;50.770;0.250;2023-07-08T07:25:49;7.25;;;3.70;;
5961;SDS011;3007;50.770;0.250;2023-07-08T07:28:16;5.78;;;3.67;;
5961;SDS011;3007;50.770;0.250;2023-07-08T07:30:43;9.45;;;4.50;;
5961;SDS011;3007;50.770;0.250;2023-07-08T07:33:10;7.05;;;4.15;;
5961;SDS011;3007;50.770;0.250;2023-07-08T07:35:41;5.93;;;3.50;;
5961;SDS011;3007;50.770;0.250;2023-07-08T07:38:08;6.88;;;3.80;;
5961;SDS011;3007;50.770;0.250;2023-07-08T07:40:37;7.20;;;3.85;;
5961;SDS011;3007;50.770;0.250;2023-07-08T07:43:06;6.90;;;4.00;;
5961;SDS011;3007;50.770;0.250;2023-07-08T07:45:32;6.90;;;4.47;;
5961;SDS011;3007;50.770;0.250;2023-07-08T07:47:59;5.05;;;3.50;;
5961;SDS011;3007;50.770;0.250;2023-07-08T07:50:26;8.65;;;3.83;;
5961;SDS011;3007;50.770;0.250;2023-07-08T07:52:53;11.20;;;3.97;;
5961;SDS011;3007;50.770;0.250;2023-07-08T07:55:20;7.00;;;4.00;;
5961;SDS011;3007;50.770;0.250;2023-07-08T07:57:49;7.13;;;4.32;;
5961;SDS011;3007;50.770;0.250;2023-07-08T08:00:16;6.38;;;4.55;;
5961;SDS011;3007;50.770;0.250;2023-07-08T08:02:42;9.27;;;4.63;;
5961;SDS011;3007;50.770;0.250;2023-07-08T08:05:09;5.97;;;3.65;;
5961;SDS011;3007;50.770;0.250;2023-07-08T08:07:36;10.20;;;4.55;;
5961;SDS011;3007;50.770;0.250;2023-07-08T08:10:03;5.25;;;3.53;;
5961;SDS011;3007;50.770;0.250;2023-07-08T08:12:31;7.85;;;3.88;;
5961;SDS011;3007;50.770;0.250;2023-07-08T08:14:59;6.90;;;4.47;;
5961;SDS011;3007;50.770;0.250;2023-07-08T08:17:26;5.60;;;3.83;;
5961;SDS011;3007;50.770;0.250;2023-07-08T08:19:52;9.68;;;4.60;;
5961;SDS011;3007;50.770;0.250;2023-07-08T08:22:19;7.88;;;4.47;;
5961;SDS011;3007;50.770;0.250;2023-07-08T08:24:47;7.03;;;4.38;;
5961;SDS011;3007;50.770;0.250;2023-07-08T08:27:14;7.15;;;4.40;;
5961;SDS011;3007;50.770;0.250;2023-07-08T08:29:40;6.60;;;4.30;;
5961;SDS011;3007;50.770;0.250;2023-07-08T08:32:09;6.60;;;4.32;;
5961;SDS011;3007;50.770;0.250;2023-07-08T08:34:36;6.47;;;4.35;;
5961;SDS011;3007;50.770;0.250;2023-07-08T08:37:03;8.65;;;4.05;;
5961;SDS011;3007;50.770;0.250;2023-07-08T08:39:30;5.97;;;4.25;;
5961;SDS011;3007;50.770;0.250;2023-07-08T08:41:57;5.15;;;4.50;;
5961;SDS011;3007;50.770;0.250;2023-07-08T08:44:32;6.28;;;4.35;;
5961;SDS011;3007;50.770;0.250;2023-07-08T08:47:03;7.55;;;3.95;;
5961;SDS011;3007;50.770;0.250;2023-07-08T08:49:37;6.45;;;4.55;;
5961;SDS011;3007;50.770;0.250;2023-07-08T08:52:09;6.38;;;3.85;;
5961;SDS011;3007;50.770;0.250;2023-07-08T08:54:36;6.32;;;3.97;;
5961;SDS011;3007;50.770;0.250;2023-07-08T08:57:06;7.05;;;3.97;;
5961;SDS011;3007;50.770;0.250;2023-07-08T08:59:57;5.20;;;3.53;;
5961;SDS011;3007;50.770;0.250;2023-07-08T09:02:28;4.55;;;3.20;;
5961;SDS011;3007;50.770;0.250;2023-07-08T09:05:03;5.97;;;3.33;;
5961;SDS011;3007;50.770;0.250;2023-07-08T09:07:34;7.18;;;3.83;;
5961;SDS011;3007;50.770;0.250;2023-07-08T09:10:09;9.07;;;3.90;;
5961;SDS011;3007;50.770;0.250;2023-07-08T09:12:41;7.20;;;3.50;;
5961;SDS011;3007;50.770;0.250;2023-07-08T09:15:12;5.60;;;3.67;;
5961;SDS011;3007;50.770;0.250;2023-07-08T09:17:40;7.35;;;3.55;;
5961;SDS011;3007;50.770;0.250;2023-07-08T09:20:12;6.28;;;3.83;;
5961;SDS011;3007;50.770;0.250;2023-07-08T09:22:47;5.80;;;3.53;;
5961;SDS011;3007;50.770;0.250;2023-07-08T09:25:22;6.18;;;3.63;;
5961;SDS011;3007;50.770;0.250;2023-07-08T09:27:52;4.55;;;3.40;;
5961;SDS011;3007;50.770;0.250;2023-07-08T09:30:21;3.78;;;3.42;;
5961;SDS011;3007;50.770;0.250;2023-07-08T09:32:49;5.72;;;3.55;;
5961;SDS011;3007;50.770;0.250;2023-07-08T09:35:19;4.00;;;3.53;;
5961;SDS011;3007;50.770;0.250;2023-07-08T09:37:48;3.97;;;2.95;;
5961;SDS011;3007;50.770;0.250;2023-07-08T09:40:16;4.47;;;3.10;;
5961;SDS011;3007;50.770;0.250;2023-07-08T09:42:46;3.63;;;2.60;;
5961;SDS011;3007;50.770;0.250;2023-07-08T09:45:17;5.47;;;3.35;;
5961;SDS011;3007;50.770;0.250;2023-07-08T09:47:47;3.20;;;2.60;;
5961;SDS011;3007;50.770;0.250;2023-07-08T09:50:20;4.95;;;2.90;;
5961;SDS011;3007;50.770;0.250;2023-07-08T09:52:49;4.70;;;2.90;;
5961;SDS011;3007;50.770;0.250;2023-07-08T09:55:18;3.80;;;2.72;;
5961;SDS011;3007;50.770;0.250;2023-07-08T09:57:45;3.30;;;2.63;;
5961;SDS011;3007;50.770;0.250;2023-07-08T10:00:15;4.80;;;2.65;;
5961;SDS011;3007;50.770;0.250;2023-07-08T10:02:45;6.95;;;3.03;;
5961;SDS011;3007;50.770;0.250;2023-07-08T10:05:15;3.22;;;2.78;;
5961;SDS011;3007;50.770;0.250;2023-07-08T10:07:45;4.00;;;2.75;;
5961;SDS011;3007;50.770;0.250;2023-07-08T10:10:15;5.03;;;3.03;;
5961;SDS011;3007;50.770;0.250;2023-07-08T10:12:47;5.10;;;3.17;;
5961;SDS011;3007;50.770;0.250;2023-07-08T10:15:22;6.88;;;3.00;;
5961;SDS011;3007;50.770;0.250;2023-07-08T10:17:54;3.58;;;2.78;;
5961;SDS011;3007;50.770;0.250;2023-07-08T10:20:22;4.13;;;2.60;;
5961;SDS011;3007;50.770;0.250;2023-07-08T10:22:56;5.35;;;2.88;;
5961;SDS011;3007;50.770;0.250;2023-07-08T10:25:29;4.20;;;2.67;;
5961;SDS011;3007;50.770;0.250;2023-07-08T10:28:06;5.43;;;2.83;;
5961;SDS011;3007;50.770;0.250;2023-07-08T10:30:49;5.18;;;2.90;;
5961;SDS011;3007;50.770;0.250;2023-07-08T10:33:31;6.20;;;3.15;;
5961;SDS011;3007;50.770;0.250;2023-07-08T10:36:18;5.40;;;3.30;;
5961;SDS011;3007;50.770;0.250;2023-07-08T10:38:53;5.35;;;2.92;;
5961;SDS011;3007;50.770;0.250;2023-07-08T10:41:37;5.40;;;3.53;;
5961;SDS011;3007;50.770;0.250;2023-07-08T10:44:17;5.25;;;3.25;;
5961;SDS011;3007;50.770;0.250;2023-07-08T10:46:50;4.97;;;2.92;;
5961;SDS011;3007;50.770;0.250;2023-07-08T10:49:30;6.95;;;3.50;;
5961;SDS011;3007;50.770;0.250;2023-07-08T10:52:14;3.75;;;2.83;;
5961;SDS011;3007;50.770;0.250;2023-07-08T10:55:04;6.35;;;3.55;;
5961;SDS011;3007;50.770;0.250;2023-07-08T10:57:50;5.18;;;2.63;;
5961;SDS011;3007;50.770;0.250;2023-07-08T11:00:36;5.50;;;2.85;;
5961;SDS011;3007;50.770;0.250;2023-07-08T11:03:17;6.30;;;3.17;;
5961;SDS011;3007;50.770;0.250;2023-07-08T11:06:10;4.90;;;2.78;;
5961;SDS011;3007;50.770;0.250;2023-07-08T11:08:41;3.38;;;2.40;;
5961;SDS011;3007;50.770;0.250;2023-07-08T11:11:15;5.95;;;2.97;;
5961;SDS011;3007;50.770;0.250;2023-07-08T11:13:54;6.82;;;3.22;;
5961;SDS011;3007;50.770;0.250;2023-07-08T11:16:26;4.72;;;3.08;;
5961;SDS011;3007;50.770;0.250;2023-07-08T11:18:58;4.88;;;2.80;;
5961;SDS011;3007;50.770;0.250;2023-07-08T11:21:31;5.82;;;3.03;;
5961;SDS011;3007;50.770;0.250;2023-07-08T11:24:03;5.43;;;3.20;;
5961;SDS011;3007;50.770;0.250;2023-07-08T11:26:36;3.92;;;3.00;;
5961;SDS011;3007;50.770;0.250;2023-07-08T11:29:10;4.25;;;3.00;;
5961;SDS011;3007;50.770;0.250;2023-07-08T11:31:44;4.03;;;2.83;;
5961;SDS011;3007;50.770;0.250;2023-07-08T11:34:13;3.38;;;2.58;;
5961;SDS011;3007;50.770;0.250;2023-07-08T11:36:43;5.53;;;3.00;;
5961;SDS011;3007;50.770;0.250;2023-07-08T11:39:27;4.18;;;2.80;;
5961;SDS011;3007;50.770;0.250;2023-07-08T11:42:15;5.00;;;2.88;;
5961;SDS011;3007;50.770;0.250;2023-07-08T11:44:46;4.13;;;2.90;;
5961;SDS011;3007;50.770;0.250;2023-07-08T11:47:18;4.90;;;2.70;;
5961;SDS011;3007;50.770;0.250;2023-07-08T11:49:50;4.40;;;2.50;;
5961;SDS011;3007;50.770;0.250;2023-07-08T11:52:20;4.35;;;3.10;;
5961;SDS011;3007;50.770;0.250;2023-07-08T11:54:48;3.17;;;2.72;;
5961;SDS011;3007;50.770;0.250;2023-07-08T11:57:29;4.53;;;3.17;;
5961;SDS011;3007;50.770;0.250;2023-07-08T12:00:13;13.70;;;5.38;;
5961;SDS011;3007;50.770;0.250;2023-07-08T12:02:53;11.10;;;4.03;;
5961;SDS011;3007;50.770;0.250;2023-07-08T12:05:31;5.47;;;2.95;;
5961;SDS011;3007;50.770;0.250;2023-07-08T12:07:59;6.50;;;3.45;;
5961;SDS011;3007;50.770;0.250;2023-07-08T12:10:30;6.70;;;3.40;;
5961;SDS011;3007;50.770;0.250;2023-07-08T12:13:01;6.35;;;3.92;;
5961;SDS011;3007;50.770;0.250;2023-07-08T12:15:29;7.97;;;4.05;;
5961;SDS011;3007;50.770;0.250;2023-07-08T12:17:58;10.35;;;4.15;;
5961;SDS011;3007;50.770;0.250;2023-07-08T12:20:29;8.48;;;4.00;;
5961;SDS011;3007;50.770;0.250;2023-07-08T12:22:58;8.02;;;3.80;;
5961;SDS011;3007;50.770;0.250;2023-07-08T12:25:27;4.28;;;3.40;;
5961;SDS011;3007;50.770;0.250;2023-07-08T12:27:57;5.22;;;3.50;;
5961;SDS011;3007;50.770;0.250;2023-07-08T12:30:27;5.45;;;3.15;;
5961;SDS011;3007;50.770;0.250;2023-07-08T12:32:55;4.68;;;3.20;;
5961;SDS011;3007;50.770;0.250;2023-07-08T12:35:25;5.93;;;3.72;;
5961;SDS011;3007;50.770;0.250;2023-07-08T12:37:54;4.97;;;3.60;;
5961;SDS011;3007;50.770;0.250;2023-07-08T12:40:25;5.50;;;3.47;;
5961;SDS011;3007;50.770;0.250;2023-07-08T12:42:53;5.65;;;3.10;;
5961;SDS011;3007;50.770;0.250;2023-07-08T12:45:21;6.70;;;3.65;;
5961;SDS011;3007;50.770;0.250;2023-07-08T12:47:51;5.15;;;3.30;;
5961;SDS011;3007;50.770;0.250;2023-07-08T12:50:19;6.05;;;3.58;;
5961;SDS011;3007;50.770;0.250;2023-07-08T12:52:46;6.85;;;3.83;;
5961;SDS011;3007;50.770;0.250;2023-07-08T12:55:14;6.05;;;3.50;;
5961;SDS011;3007;50.770;0.250;2023-07-08T12:57:42;6.20;;;3.58;;
5961;SDS011;3007;50.770;0.250;2023-07-08T13:00:14;4.03;;;3.40;;
5961;SDS011;3007;50.770;0.250;2023-07-08T13:02:49;4.68;;;3.50;;
5961;SDS011;3007;50.770;0.250;2023-07-08T13:05:25;4.00;;;3.50;;
5961;SDS011;3007;50.770;0.250;2023-07-08T13:07:53;5.60;;;3.72;;
5961;SDS011;3007;50.770;0.250;2023-07-08T13:10:23;8.80;;;3.92;;
5961;SDS011;3007;50.770;0.250;2023-07-08T13:12:53;6.20;;;3.75;;
5961;SDS011;3007;50.770;0.250;2023-07-08T13:15:23;3.95;;;3.55;;
5961;SDS011;3007;50.770;0.250;2023-07-08T13:17:54;4.47;;;3.42;;
5961;SDS011;3007;50.770;0.250;2023-07-08T13:20:22;5.70;;;4.05;;
5961;SDS011;3007;50.770;0.250;2023-07-08T13:22:52;6.78;;;4.05;;
5961;SDS011;3007;50.770;0.250;2023-07-08T13:25:25;4.35;;;3.28;;
5961;SDS011;3007;50.770;0.250;2023-07-08T13:27:54;6.03;;;3.80;;
5961;SDS011;3007;50.770;0.250;2023-07-08T13:30:23;5.07;;;3.35;;
5961;SDS011;3007;50.770;0.250;2023-07-08T13:32:53;5.40;;;3.70;;
5961;SDS011;3007;50.770;0.250;2023-07-08T13:35:23;6.13;;;3.53;;
5961;SDS011;3007;50.770;0.250;2023-07-08T13:37:52;5.95;;;4.05;;
5961;SDS011;3007;50.770;0.250;2023-07-08T13:40:19;5.15;;;3.55;;
5961;SDS011;3007;50.770;0.250;2023-07-08T13:42:47;3.85;;;3.45;;
5961;SDS011;3007;50.770;0.250;2023-07-08T13:45:15;4.05;;;3.30;;
5961;SDS011;3007;50.770;0.250;2023-07-08T13:47:45;4.15;;;3.65;;
5961;SDS011;3007;50.770;0.250;2023-07-08T13:50:39;6.65;;;4.03;;
5961;SDS011;3007;50.770;0.250;2023-07-08T13:53:18;4.88;;;3.58;;
5961;SDS011;3007;50.770;0.250;2023-07-08T13:55:47;5.55;;;3.90;;
5961;SDS011;3007;50.770;0.250;2023-07-08T13:58:15;6.45;;;3.58;;
5961;SDS011;3007;50.770;0.250;2023-07-08T14:00:43;6.25;;;3.60;;
5961;SDS011;3007;50.770;0.250;2023-07-08T14:03:11;5.32;;;3.47;;
5961;SDS011;3007;50.770;0.250;2023-07-08T14:05:41;3.95;;;3.47;;
5961;SDS011;3007;50.770;0.250;2023-07-08T14:08:10;4.18;;;3.50;;
5961;SDS011;3007;50.770;0.250;2023-07-08T14:10:40;4.50;;;3.17;;
5961;SDS011;3007;50.770;0.250;2023-07-08T14:13:07;3.47;;;3.17;;
5961;SDS011;3007;50.770;0.250;2023-07-08T14:15:35;8.40;;;3.97;;
5961;SDS011;3007;50.770;0.250;2023-07-08T14:18:04;4.53;;;3.30;;
5961;SDS011;3007;50.770;0.250;2023-07-08T14:20:31;5.60;;;3.97;;
5961;SDS011;3007;50.770;0.250;2023-07-08T14:22:59;6.05;;;3.92;;
5961;SDS011;3007;50.770;0.250;2023-07-08T14:25:26;9.70;;;4.10;;
5961;SDS011;3007;50.770;0.250;2023-07-08T14:27:53;4.68;;;3.58;;
5961;SDS011;3007;50.770;0.250;2023-07-08T14:30:20;4.22;;;3.47;;
5961;SDS011;3007;50.770;0.250;2023-07-08T14:32:47;6.20;;;4.00;;
5961;SDS011;3007;50.770;0.250;2023-07-08T14:35:15;6.28;;;3.90;;
5961;SDS011;3007;50.770;0.250;2023-07-08T14:37:50;6.25;;;3.80;;
5961;SDS011;3007;50.770;0.250;2023-07-08T14:40:22;4.13;;;3.58;;
5961;SDS011;3007;50.770;0.250;2023-07-08T14:42:56;4.97;;;3.53;;
5961;SDS011;3007;50.770;0.250;2023-07-08T14:45:25;5.45;;;3.88;;
5961;SDS011;3007;50.770;0.250;2023-07-08T14:47:53;5.35;;;3.95;;
5961;SDS011;3007;50.770;0.250;2023-07-08T14:50:20;10.57;;;4.57;;
5961;SDS011;3007;50.770;0.250;2023-07-08T14:52:47;4.47;;;3.60;;
5961;SDS011;3007;50.770;0.250;2023-07-08T14:55:14;4.82;;;3.88;;
5961;SDS011;3007;50.770;0.250;2023-07-08T14:57:43;6.63;;;4.35;;
5961;SDS011;3007;50.770;0.250;2023-07-08T15:00:13;8.60;;;3.83;;
5961;SDS011;3007;50.770;0.250;2023-07-08T15:02:43;9.88;;;3.60;;
5961;SDS011;3007;50.770;0.250;2023-07-08T15:05:13;7.78;;;4.20;;
5961;SDS011;3007;50.770;0.250;2023-07-08T15:07:42;5.30;;;3.97;;
5961;SDS011;3007;50.770;0.250;2023-07-08T15:10:09;5.47;;;4.20;;
5961;SDS011;3007;50.770;0.250;2023-07-08T15:12:37;5.63;;;4.10;;
5961;SDS011;3007;50.770;0.250;2023-07-08T15:15:08;7.28;;;4.07;;
5961;SDS011;3007;50.770;0.250;2023-07-08T15:17:40;4.43;;;3.80;;
5961;SDS011;3007;50.770;0.250;2023-07-08T15:20:09;4.80;;;3.28;;
5961;SDS011;3007;50.770;0.250;2023-07-08T15:22:39;6.47;;;4.18;;
5961;SDS011;3007;50.770;0.250;2023-07-08T15:25:10;5.53;;;3.80;;
5961;SDS011;3007;50.770;0.250;2023-07-08T15:27:37;4.32;;;3.92;;
5961;SDS011;3007;50.770;0.250;2023-07-08T15:30:14;4.97;;;4.40;;